createdAt,value
2023-02-18T00:01:58.784Z,4.00
2023-02-18T00:04:27.570Z,3.20
2023-02-18T00:06:55.963Z,2.90
2023-02-18T00:09:24.204Z,3.00
2023-02-18T00:11:52.874Z,2.50
2023-02-18T00:14:21.220Z,3.70
2023-02-18T00:16:49.528Z,1.70
2023-02-18T00:19:19.644Z,2.80
2023-02-18T00:21:48.720Z,2.80
2023-02-18T00:24:17.223Z,1.80
2023-02-18T00:26:46.012Z,2.40
2023-02-18T00:29:14.869Z,2.70
2023-02-18T00:31:46.246Z,1.80
2023-02-18T00:34:14.950Z,2.90
2023-02-18T00:36:43.699Z,1.40
2023-02-18T00:39:12.625Z,2.00
2023-02-18T00:41:41.079Z,1.90
2023-02-18T00:44:09.968Z,2.30
2023-02-18T00:46:38.300Z,2.60
2023-02-18T00:49:08.050Z,4.00
2023-02-18T00:51:37.500Z,3.40
2023-02-18T00:54:05.833Z,1.20
2023-02-18T00:56:34.673Z,2.20
2023-02-18T00:59:03.155Z,2.20
2023-02-18T01:01:32.248Z,2.70
2023-02-18T01:04:00.800Z,3.50
2023-02-18T01:06:29.286Z,1.50
2023-02-18T01:08:57.632Z,3.00
2023-02-18T01:11:25.935Z,2.40
2023-02-18T01:13:54.651Z,2.60
2023-02-18T01:16:24.091Z,3.00
2023-02-18T01:18:53.702Z,1.50
2023-02-18T01:21:22.074Z,1.90
2023-02-18T01:23:50.552Z,1.40
2023-02-18T01:26:19.142Z,2.80
2023-02-18T01:28:48.361Z,2.20
2023-02-18T01:31:17.063Z,4.00
2023-02-18T01:33:46.337Z,2.70
2023-02-18T01:36:14.711Z,2.10
2023-02-18T01:38:42.968Z,2.90
2023-02-18T01:41:11.444Z,2.50
2023-02-18T01:43:40.019Z,1.30
2023-02-18T01:46:15.733Z,1.80
2023-02-18T01:48:50.620Z,1.40
2023-02-18T01:51:32.079Z,2.70
2023-02-18T01:54:09.979Z,1.80
2023-02-18T01:56:50.351Z,2.40
2023-02-18T01:59:22.041Z,2.30
2023-02-18T02:01:50.336Z,1.50
2023-02-18T02:04:19.664Z,0.90
2023-02-18T02:06:47.833Z,2.40
2023-02-18T02:09:17.808Z,2.20
2023-02-18T02:12:16.344Z,1.50
2023-02-18T02:15:03.461Z,1.40
2023-02-18T02:17:50.267Z,1.50
2023-02-18T02:20:43.562Z,1.10
2023-02-18T02:23:17.520Z,0.90
2023-02-18T02:26:24.715Z,1.00
2023-02-18T02:29:12.037Z,1.50
2023-02-18T02:31:59.190Z,1.20
2023-02-18T02:34:35.212Z,3.00
2023-02-18T02:37:26.012Z,1.40
2023-02-18T02:40:03.713Z,2.20
2023-02-18T02:42:42.891Z,2.80
2023-02-18T02:45:24.763Z,1.60
2023-02-18T02:48:09.082Z,2.80
2023-02-18T02:50:53.222Z,3.70
2023-02-18T02:53:27.519Z,2.60
2023-02-18T02:55:56.353Z,2.50
2023-02-18T02:58:25.036Z,4.40
2023-02-18T03:01:16.531Z,2.10
2023-02-18T03:04:11.536Z,3.10
2023-02-18T03:06:46.110Z,2.10
2023-02-18T03:09:20.230Z,2.50
2023-02-18T03:12:03.397Z,2.20
2023-02-18T03:14:47.994Z,3.10
2023-02-18T03:17:25.542Z,2.60
2023-02-18T03:20:01.137Z,2.20
2023-02-18T03:22:31.664Z,4.10
2023-02-18T03:25:00.510Z,4.10
2023-02-18T03:27:35.393Z,4.40
2023-02-18T03:30:16.661Z,3.00
2023-02-18T03:32:45.809Z,2.70
2023-02-18T03:35:16.292Z,4.60
2023-02-18T03:37:55.406Z,3.20
2023-02-18T03:40:23.600Z,5.40
2023-02-18T03:42:52.321Z,3.80
2023-02-18T03:45:20.620Z,5.00
2023-02-18T03:47:48.998Z,5.00
2023-02-18T03:50:17.660Z,3.20
2023-02-18T03:52:46.136Z,3.90
2023-02-18T03:55:14.509Z,5.70
2023-02-18T03:57:42.926Z,3.90
2023-02-18T04:00:11.930Z,5.90
2023-02-18T04:02:43.225Z,5.50
2023-02-18T04:05:11.586Z,5.00
2023-02-18T04:07:40.699Z,3.50
2023-02-18T04:10:09.624Z,5.80
2023-02-18T04:12:38.731Z,4.60
2023-02-18T04:15:07.563Z,4.20
2023-02-18T04:17:37.888Z,2.70
2023-02-18T04:20:07.341Z,1.70
2023-02-18T04:22:36.113Z,3.60
2023-02-18T04:25:04.652Z,3.50
2023-02-18T04:27:32.961Z,4.60
2023-02-18T04:30:01.375Z,5.60
2023-02-18T04:32:30.314Z,3.90
2023-02-18T04:34:58.689Z,4.20
2023-02-18T04:37:26.906Z,3.80
2023-02-18T04:39:55.222Z,2.90
2023-02-18T04:42:23.483Z,4.90
2023-02-18T04:44:51.878Z,3.90
2023-02-18T04:47:20.150Z,3.70
2023-02-18T04:49:48.629Z,3.50
2023-02-18T04:52:16.849Z,4.00
2023-02-18T04:54:45.474Z,3.00
2023-02-18T04:57:14.107Z,2.50
2023-02-18T04:59:44.532Z,2.20
2023-02-18T05:02:13.205Z,2.50
2023-02-18T05:04:42.204Z,2.50
2023-02-18T05:07:10.739Z,2.80
2023-02-18T05:09:39.233Z,2.30
2023-02-18T05:12:08.204Z,1.90
2023-02-18T05:14:36.913Z,1.80
2023-02-18T05:17:06.416Z,2.10
2023-02-18T05:19:34.610Z,2.10
2023-02-18T05:22:02.805Z,2.80
2023-02-18T05:24:31.342Z,2.00
2023-02-18T05:26:59.775Z,4.40
2023-02-18T05:29:28.310Z,1.60
2023-02-18T05:31:56.598Z,2.20
2023-02-18T05:34:24.951Z,1.50
2023-02-18T05:36:53.530Z,1.10
2023-02-18T05:39:24.467Z,1.80
2023-02-18T05:41:53.664Z,1.60
2023-02-18T05:44:30.571Z,1.00
2023-02-18T05:47:05.474Z,2.40
2023-02-18T05:49:35.667Z,0.60
2023-02-18T05:52:05.503Z,0.90
2023-02-18T05:54:34.406Z,2.20
2023-02-18T05:57:03.798Z,1.20
2023-02-18T05:59:32.173Z,1.90
2023-02-18T06:02:00.952Z,0.70
2023-02-18T06:04:29.535Z,2.00
2023-02-18T06:06:57.839Z,0.50
2023-02-18T06:09:26.442Z,2.00
2023-02-18T06:11:54.600Z,1.10
2023-02-18T06:14:22.891Z,0.60
2023-02-18T06:16:51.561Z,0.80
2023-02-18T06:19:19.749Z,0.60
2023-02-18T06:21:48.281Z,1.60
2023-02-18T06:24:19.935Z,1.00
2023-02-18T06:26:53.944Z,0.90
2023-02-18T06:29:22.625Z,0.60
2023-02-18T06:31:51.182Z,0.40
2023-02-18T06:34:19.587Z,0.60
2023-02-18T06:36:47.785Z,1.40
2023-02-18T06:39:16.023Z,0.50
2023-02-18T06:41:44.194Z,1.50
2023-02-18T06:44:15.643Z,0.60
2023-02-18T06:46:44.697Z,0.10
2023-02-18T06:49:12.946Z,0.90
2023-02-18T06:51:43.249Z,0.10
2023-02-18T06:54:11.510Z,0.30
2023-02-18T06:56:40.598Z,0.80
2023-02-18T06:59:08.974Z,1.10
2023-02-18T07:01:37.324Z,0.60
2023-02-18T07:04:05.834Z,1.00
2023-02-18T07:06:34.183Z,0.00
2023-02-18T07:09:02.605Z,0.50
2023-02-18T07:11:31.275Z,0.30
2023-02-18T07:13:59.888Z,0.40
2023-02-18T07:16:28.348Z,0.10
2023-02-18T07:18:56.912Z,0.40
2023-02-18T07:21:25.084Z,0.40
2023-02-18T07:23:55.716Z,0.50
2023-02-18T07:26:24.105Z,0.20
2023-02-18T07:29:02.915Z,0.30
2023-02-18T07:31:31.994Z,0.40
2023-02-18T07:34:01.099Z,2.00
2023-02-18T07:36:29.636Z,0.10
2023-02-18T07:38:57.859Z,0.30
2023-02-18T07:41:27.361Z,0.50
2023-02-18T07:43:55.864Z,0.30
2023-02-18T07:46:24.857Z,1.60
2023-02-18T07:48:53.925Z,0.80
2023-02-18T07:51:25.996Z,0.50
2023-02-18T07:54:05.219Z,0.80
2023-02-18T07:56:34.512Z,0.50
2023-02-18T07:59:02.896Z,0.40
2023-02-18T08:01:31.582Z,0.60
2023-02-18T08:04:00.914Z,0.40
2023-02-18T08:06:40.708Z,1.10
2023-02-18T08:09:09.621Z,0.60
2023-02-18T08:11:38.296Z,0.70
2023-02-18T08:14:06.987Z,0.30
2023-02-18T08:16:35.708Z,0.90
2023-02-18T08:19:04.297Z,0.90
2023-02-18T08:21:32.738Z,0.70
2023-02-18T08:24:01.325Z,1.50
2023-02-18T08:26:31.553Z,0.70
2023-02-18T08:29:00.373Z,1.30
2023-02-18T08:31:29.765Z,1.00
2023-02-18T08:33:58.919Z,1.60
2023-02-18T08:36:28.116Z,0.80
2023-02-18T08:38:59.469Z,0.30
2023-02-18T08:41:27.791Z,0.50
2023-02-18T08:43:57.855Z,0.20
2023-02-18T08:46:33.289Z,1.00
2023-02-18T08:49:04.757Z,0.40
2023-02-18T08:51:38.137Z,0.80
2023-02-18T08:54:09.692Z,1.90
2023-02-18T08:56:39.820Z,1.60
2023-02-18T08:59:08.191Z,0.50
2023-02-18T09:01:36.623Z,0.50
2023-02-18T09:04:05.563Z,1.10
2023-02-18T09:06:37.492Z,1.00
2023-02-18T09:09:05.889Z,0.50
2023-02-18T09:11:37.098Z,1.30
2023-02-18T09:14:05.682Z,0.60
2023-02-18T09:16:33.904Z,1.00
2023-02-18T09:19:02.205Z,0.90
2023-02-18T09:21:30.949Z,0.30
2023-02-18T09:24:00.355Z,0.60
2023-02-18T09:26:29.679Z,1.30
2023-02-18T09:28:58.129Z,0.10
2023-02-18T09:31:27.030Z,1.10
2023-02-18T09:34:00.515Z,0.40
2023-02-18T09:36:31.307Z,0.60
2023-02-18T09:39:00.518Z,0.40
2023-02-18T09:41:46.836Z,0.60
2023-02-18T09:44:34.476Z,1.00
2023-02-18T09:47:07.449Z,0.70
2023-02-18T09:49:37.536Z,1.00
2023-02-18T09:52:28.269Z,0.30
2023-02-18T09:54:56.532Z,0.40
2023-02-18T09:57:44.148Z,0.70
2023-02-18T10:00:21.231Z,0.10
2023-02-18T10:03:17.897Z,0.30
2023-02-18T10:06:13.135Z,0.40
2023-02-18T10:08:47.267Z,1.00
2023-02-18T10:11:32.302Z,0.30
2023-02-18T10:14:01.741Z,0.90
2023-02-18T10:16:31.921Z,0.70
2023-02-18T10:19:24.546Z,0.10
2023-02-18T10:21:53.433Z,0.60
2023-02-18T10:24:33.863Z,0.10
2023-02-18T10:27:05.164Z,0.00
2023-02-18T10:29:33.837Z,0.20
2023-02-18T10:32:27.361Z,1.20
2023-02-18T10:35:14.818Z,0.70
2023-02-18T10:37:52.002Z,0.40
2023-02-18T10:40:39.388Z,0.60
2023-02-18T10:43:26.230Z,0.40
2023-02-18T10:46:29.375Z,0.40
2023-02-18T10:49:45.253Z,0.80
2023-02-18T10:52:16.949Z,0.40
2023-02-18T10:55:03.225Z,0.50
2023-02-18T10:57:33.690Z,0.70
2023-02-18T11:00:15.683Z,0.60
2023-02-18T11:02:44.057Z,0.50
2023-02-18T11:05:26.833Z,0.60
2023-02-18T11:07:57.255Z,0.20
2023-02-18T11:10:29.396Z,0.40
2023-02-18T11:13:04.481Z,0.50
2023-02-18T11:15:36.504Z,1.00
2023-02-18T11:18:41.509Z,0.10
2023-02-18T11:21:24.629Z,0.40
2023-02-18T11:23:54.254Z,1.70
2023-02-18T11:26:34.195Z,0.80
2023-02-18T11:29:23.373Z,0.30
2023-02-18T11:31:54.222Z,0.30
2023-02-18T11:34:25.752Z,0.40
2023-02-18T11:36:54.971Z,0.40
2023-02-18T11:39:27.922Z,1.00
2023-02-18T11:42:07.125Z,0.50
2023-02-18T11:44:38.336Z,0.50
2023-02-18T11:47:20.316Z,0.70
2023-02-18T11:50:10.746Z,1.10
2023-02-18T11:52:48.890Z,0.10
2023-02-18T11:55:17.436Z,0.70
2023-02-18T11:58:04.538Z,0.80
2023-02-18T12:00:37.028Z,0.40
2023-02-18T12:03:27.868Z,2.10
2023-02-18T12:05:58.505Z,0.40
2023-02-18T12:08:32.513Z,0.20
2023-02-18T12:11:04.215Z,0.50
2023-02-18T12:13:33.970Z,0.20
2023-02-18T12:16:17.069Z,1.10
2023-02-18T12:18:51.030Z,1.00
2023-02-18T12:21:28.597Z,0.40
2023-02-18T12:24:29.295Z,0.50
2023-02-18T12:27:27.355Z,1.20
2023-02-18T12:30:17.438Z,1.20
2023-02-18T12:32:57.730Z,1.50
2023-02-18T12:35:50.811Z,1.00
2023-02-18T12:38:30.976Z,0.80
2023-02-18T12:41:24.199Z,0.50
2023-02-18T12:44:09.638Z,0.60
2023-02-18T12:49:39.560Z,0.70
2023-02-18T12:52:50.194Z,0.20
2023-02-18T12:55:42.007Z,1.20
2023-02-18T12:58:35.995Z,0.60
2023-02-18T13:01:07.383Z,1.30
2023-02-18T13:04:27.144Z,1.70
2023-02-18T13:07:13.522Z,2.10
2023-02-18T13:10:07.427Z,0.50
2023-02-18T13:12:59.606Z,0.30
2023-02-18T13:15:38.872Z,1.00
2023-02-18T13:18:20.943Z,1.20
2023-02-18T13:21:05.397Z,1.40
2023-02-18T13:23:37.514Z,1.20
2023-02-18T13:26:06.979Z,1.70
2023-02-18T13:28:58.616Z,1.10
2023-02-18T13:31:55.217Z,1.30
2023-02-18T13:34:32.029Z,1.20
2023-02-18T13:37:18.701Z,0.60
2023-02-18T13:39:51.941Z,0.40
2023-02-18T13:42:26.343Z,0.40
2023-02-18T13:44:57.691Z,0.50
2023-02-18T13:47:45.737Z,1.00
2023-02-18T13:50:23.561Z,1.20
2023-02-18T13:52:53.234Z,0.70
2023-02-18T13:55:22.939Z,0.50
2023-02-18T13:57:53.731Z,0.30
2023-02-18T14:00:25.134Z,0.40
2023-02-18T14:03:01.009Z,1.60
2023-02-18T14:05:42.893Z,1.40
2023-02-18T14:08:29.423Z,0.50
2023-02-18T14:11:12.875Z,0.20
2023-02-18T14:13:44.602Z,1.00
2023-02-18T14:16:14.297Z,1.50
2023-02-18T14:18:42.538Z,0.90
2023-02-18T14:21:14.161Z,1.40
2023-02-18T14:23:44.617Z,0.70
2023-02-18T14:26:12.686Z,0.80
2023-02-18T14:28:43.791Z,0.20
2023-02-18T14:31:13.160Z,1.20
2023-02-18T14:34:26.657Z,1.20
2023-02-18T14:37:04.402Z,1.40
2023-02-18T14:39:54.912Z,1.10
2023-02-18T14:42:30.474Z,0.80
2023-02-18T14:45:19.881Z,1.10
2023-02-18T14:48:07.858Z,1.40
2023-02-18T14:50:37.412Z,2.60
2023-02-18T14:53:07.516Z,0.50
2023-02-18T14:55:37.621Z,0.90
2023-02-18T14:58:07.968Z,0.90
2023-02-18T15:00:40.718Z,1.60
2023-02-18T15:03:28.499Z,0.50
2023-02-18T15:05:57.066Z,1.20
2023-02-18T15:08:26.492Z,1.40
2023-02-18T15:11:06.782Z,0.20
2023-02-18T15:13:42.048Z,1.20
2023-02-18T15:16:17.010Z,2.40
2023-02-18T15:18:50.194Z,1.80
2023-02-18T15:21:30.632Z,1.20
2023-02-18T15:24:07.523Z,1.10
2023-02-18T15:26:37.561Z,1.20
2023-02-18T15:29:06.001Z,1.00
2023-02-18T15:31:38.689Z,0.90
2023-02-18T15:34:30.955Z,1.00
2023-02-18T15:37:00.033Z,1.00
2023-02-18T15:39:28.312Z,1.00
2023-02-18T15:41:59.738Z,0.50
2023-02-18T15:44:30.471Z,0.70
2023-02-18T15:47:07.702Z,1.10
2023-02-18T15:49:38.999Z,2.10
2023-02-18T15:52:08.933Z,0.90
2023-02-18T15:54:41.000Z,0.90
2023-02-18T15:57:13.348Z,1.20
2023-02-18T15:59:57.817Z,1.70
2023-02-18T16:02:26.086Z,0.90
2023-02-18T16:05:04.969Z,0.60
2023-02-18T16:07:38.695Z,0.70
2023-02-18T16:10:21.310Z,2.10
2023-02-18T16:13:00.751Z,0.50
2023-02-18T16:15:32.453Z,1.00
2023-02-18T16:18:01.249Z,0.30
2023-02-18T16:20:32.200Z,3.00
2023-02-18T16:23:03.565Z,2.20
2023-02-18T16:25:45.391Z,0.70
2023-02-18T16:28:25.318Z,1.00
2023-02-18T16:30:53.593Z,0.50
2023-02-18T16:33:22.065Z,1.10
2023-02-18T16:35:51.075Z,0.60
2023-02-18T16:38:25.191Z,1.30
2023-02-18T16:40:57.451Z,1.50
2023-02-18T16:43:27.669Z,0.40
2023-02-18T16:45:58.952Z,0.90
2023-02-18T16:48:37.106Z,0.40
2023-02-18T16:51:12.350Z,1.80
2023-02-18T16:53:40.828Z,0.70
2023-02-18T16:56:17.186Z,1.10
2023-02-18T16:58:51.510Z,1.70
2023-02-18T17:01:27.374Z,1.50
2023-02-18T17:03:55.960Z,1.40
2023-02-18T17:06:24.755Z,0.90
2023-02-18T17:08:53.406Z,2.40
2023-02-18T17:11:33.194Z,1.20
2023-02-18T17:14:06.660Z,1.30
2023-02-18T17:16:35.958Z,1.80
2023-02-18T17:19:04.705Z,0.60
2023-02-18T17:21:33.627Z,0.80
2023-02-18T17:24:04.159Z,0.70
2023-02-18T17:26:36.213Z,0.80
2023-02-18T17:29:05.715Z,0.60
2023-02-18T17:31:41.653Z,0.50
2023-02-18T17:34:12.680Z,0.70
2023-02-18T17:45:34.290Z,1.40
2023-02-18T17:48:05.746Z,1.10
2023-02-18T17:50:34.230Z,1.40
2023-02-18T17:53:05.773Z,2.00
2023-02-18T17:55:37.122Z,2.30
2023-02-18T17:58:05.603Z,0.90
2023-02-18T18:00:39.969Z,0.80
2023-02-18T18:03:10.288Z,1.10
2023-02-18T18:05:40.146Z,1.20
2023-02-18T18:08:12.719Z,1.50
2023-02-18T18:10:49.403Z,0.50
2023-02-18T18:13:22.004Z,0.40
2023-02-18T18:15:51.377Z,0.50
2023-02-18T18:18:20.036Z,1.60
2023-02-18T18:20:58.560Z,0.60
2023-02-18T18:23:28.786Z,0.90
2023-02-18T18:25:57.719Z,1.80
2023-02-18T18:28:33.021Z,1.20
2023-02-18T18:31:03.475Z,0.90
2023-02-18T18:33:33.476Z,0.40
2023-02-18T18:36:02.076Z,1.00
2023-02-18T18:38:30.626Z,0.80
2023-02-18T18:40:59.308Z,0.60
2023-02-18T18:43:32.892Z,1.60
2023-02-18T18:46:01.875Z,1.10
2023-02-18T18:48:32.542Z,1.20
2023-02-18T18:51:02.852Z,1.60
2023-02-18T18:53:33.236Z,0.20
2023-02-18T18:56:03.803Z,0.90
2023-02-18T18:58:32.301Z,0.60
2023-02-18T19:01:02.330Z,0.40
2023-02-18T19:03:37.841Z,0.90
2023-02-18T19:06:06.426Z,2.00
2023-02-18T19:08:35.611Z,1.60
2023-02-18T19:11:05.136Z,0.90
2023-02-18T19:13:35.874Z,1.70
2023-02-18T19:16:19.804Z,0.60
2023-02-18T19:18:48.274Z,1.00
2023-02-18T19:21:19.005Z,1.40
2023-02-18T19:23:48.303Z,0.20
2023-02-18T19:26:17.218Z,1.70
2023-02-18T19:28:46.288Z,1.30
2023-02-18T19:31:15.240Z,1.70
2023-02-18T19:33:46.990Z,0.70
2023-02-18T19:36:16.870Z,1.40
2023-02-18T19:38:48.592Z,0.90
2023-02-18T19:41:17.180Z,2.90
2023-02-18T19:43:49.655Z,0.70
2023-02-18T19:46:20.223Z,1.20
2023-02-18T19:48:52.397Z,1.50
2023-02-18T19:51:21.712Z,1.70
2023-02-18T19:53:50.540Z,1.00
2023-02-18T19:56:18.800Z,0.50
2023-02-18T19:58:47.805Z,0.90
2023-02-18T20:01:17.057Z,1.40
2023-02-18T20:03:48.040Z,1.20
2023-02-18T20:06:22.380Z,0.30
2023-02-18T20:08:51.479Z,0.40
2023-02-18T20:11:23.321Z,1.20
2023-02-18T20:13:52.813Z,1.10
2023-02-18T20:16:26.219Z,1.40
2023-02-18T20:19:00.008Z,1.80
2023-02-18T20:21:28.805Z,0.80
2023-02-18T20:24:01.885Z,1.10
2023-02-18T20:26:30.259Z,0.70
2023-02-18T20:28:58.947Z,0.80
2023-02-18T20:31:27.630Z,0.70
2023-02-18T20:33:56.960Z,0.60
2023-02-18T20:36:25.857Z,0.20
2023-02-18T20:38:54.092Z,1.00
2023-02-18T20:41:22.465Z,1.30
2023-02-18T20:44:00.761Z,1.10
2023-02-18T20:48:57.633Z,0.70
2023-02-18T20:51:26.645Z,0.70
2023-02-18T20:53:55.225Z,1.00
2023-02-18T20:56:23.587Z,2.20
2023-02-18T20:58:52.166Z,0.80
2023-02-18T21:01:20.378Z,2.90
2023-02-18T21:03:49.092Z,2.90
2023-02-18T21:06:19.423Z,0.60
2023-02-18T21:08:51.938Z,0.70
2023-02-18T21:11:25.362Z,0.70
2023-02-18T21:13:55.480Z,0.70
2023-02-18T21:16:24.505Z,0.40
2023-02-18T21:18:52.909Z,1.30
2023-02-18T21:21:23.860Z,1.20
2023-02-18T21:23:53.748Z,1.80
2023-02-18T21:26:25.002Z,1.40
2023-02-18T21:28:55.630Z,1.10
2023-02-18T21:31:32.670Z,1.10
2023-02-18T21:34:01.390Z,1.80
2023-02-18T21:36:31.306Z,0.80
2023-02-18T21:39:02.258Z,0.80
2023-02-18T21:41:35.018Z,0.30
2023-02-18T21:44:04.117Z,0.90
2023-02-18T21:46:33.514Z,0.80
2023-02-18T21:49:09.771Z,0.90
2023-02-18T21:51:57.412Z,0.20
2023-02-18T21:54:28.338Z,0.30
2023-02-18T21:56:57.224Z,0.90
2023-02-18T21:59:27.033Z,0.30
2023-02-18T22:01:55.727Z,1.30
2023-02-18T22:04:25.470Z,1.40
2023-02-18T22:06:53.710Z,1.50
2023-02-18T22:09:22.703Z,1.20
2023-02-18T22:11:50.970Z,0.70
2023-02-18T22:14:19.389Z,1.40
2023-02-18T22:16:47.974Z,0.50
2023-02-18T22:19:16.312Z,0.80
2023-02-18T22:21:45.108Z,0.30
2023-02-18T22:24:16.898Z,1.50
2023-02-18T22:26:46.855Z,0.80
2023-02-18T22:29:15.802Z,0.60
2023-02-18T22:31:44.536Z,0.70
2023-02-18T22:34:13.019Z,2.30
2023-02-18T22:36:41.293Z,2.20
2023-02-18T22:39:10.593Z,0.60
2023-02-18T22:41:39.481Z,1.90
2023-02-18T22:44:09.389Z,1.40
2023-02-18T22:46:40.120Z,1.60
2023-02-18T22:49:09.013Z,0.90
2023-02-18T22:51:38.986Z,1.20
2023-02-18T22:54:10.208Z,1.30
2023-02-18T22:56:38.648Z,2.40
2023-02-18T22:59:07.022Z,2.30
2023-02-18T23:01:40.218Z,2.30
2023-02-18T23:04:10.137Z,1.10
2023-02-18T23:06:39.564Z,1.30
2023-02-18T23:09:11.053Z,1.40
2023-02-18T23:11:39.934Z,0.90
2023-02-18T23:14:18.277Z,1.50
2023-02-18T23:17:06.300Z,1.10
2023-02-18T23:19:34.694Z,1.50
2023-02-18T23:22:03.900Z,0.90
2023-02-18T23:24:37.492Z,0.80
2023-02-18T23:27:06.278Z,1.00
2023-02-18T23:29:34.501Z,0.20
2023-02-18T23:32:02.759Z,0.60
2023-02-18T23:34:31.299Z,0.90
2023-02-18T23:37:00.800Z,0.50
2023-02-18T23:39:29.733Z,0.80
2023-02-18T23:41:57.972Z,1.10
2023-02-18T23:44:26.451Z,1.50
2023-02-18T23:46:54.722Z,1.20
2023-02-18T23:49:24.681Z,1.00
2023-02-18T23:51:54.342Z,1.00
2023-02-18T23:54:22.639Z,1.60
2023-02-18T23:56:50.901Z,1.40
2023-02-18T23:59:19.071Z,0.40
